Terminal Aerodrome Forecast
Issued by NWS Albany, NY

Home | Current Version | Previous Version | Text Only | Print | Product List | Glossary On
Versions: 1 2 3 4 5 6 7 8 9 10 11 12 13 14 15 16 17 18 19 20 21 22 23 24
967
FTUS41 KALY 190322 AAB
TAFPOU
TAF AMD
KPOU 190322Z 1903/1924 00000KT 6SM BR BKN020
     FM190600 00000KT 4SM BR BKN015
      TEMPO 1907/1911 2SM BR BKN005
     FM191200 25006KT P6SM SCT015 SCT050
     FM191800 26008KT P6SM BKN050
     FM192200 27005KT P6SM SCT050=

USA.gov is the U.S. government's official web portal to all federal, state and local government web resources and services.